createdAt,value
2023-03-06T00:00:46.391Z,16.45
2023-03-06T00:03:13.584Z,15.40
2023-03-06T00:05:41.116Z,15.40
2023-03-06T00:08:08.315Z,16.48
2023-03-06T00:10:35.528Z,15.18
2023-03-06T00:13:04.001Z,16.92
2023-03-06T00:15:31.422Z,16.77
2023-03-06T00:17:58.592Z,15.85
2023-03-06T00:20:26.737Z,16.63
2023-03-06T00:22:53.922Z,16.08
2023-03-06T00:25:22.010Z,14.82
2023-03-06T00:27:49.621Z,17.42
2023-03-06T00:30:19.336Z,16.77
2023-03-06T00:32:46.828Z,16.17
2023-03-06T00:35:14.380Z,16.27
2023-03-06T00:37:41.732Z,16.80
2023-03-06T00:40:11.168Z,16.30
2023-03-06T00:42:38.328Z,15.48
2023-03-06T00:45:05.675Z,15.20
2023-03-06T00:47:32.755Z,15.32
2023-03-06T00:49:59.884Z,17.00
2023-03-06T00:52:27.168Z,16.35
2023-03-06T00:54:54.320Z,16.42
2023-03-06T00:57:21.516Z,16.67
2023-03-06T00:59:48.631Z,15.93
2023-03-06T01:02:15.790Z,15.45
2023-03-06T01:04:43.029Z,16.52
2023-03-06T01:07:10.479Z,15.55
2023-03-06T01:09:37.636Z,16.25
2023-03-06T01:12:04.878Z,16.48
2023-03-06T01:14:32.261Z,16.70
2023-03-06T01:16:59.517Z,15.23
2023-03-06T01:19:26.717Z,17.15
2023-03-06T01:21:53.816Z,15.75
2023-03-06T01:24:20.884Z,15.35
2023-03-06T01:26:47.998Z,18.25
2023-03-06T01:29:15.095Z,16.02
2023-03-06T01:31:42.210Z,15.18
2023-03-06T01:34:09.369Z,16.50
2023-03-06T01:36:36.555Z,15.48
2023-03-06T01:39:03.789Z,15.80
2023-03-06T01:41:32.651Z,15.25
2023-03-06T01:43:59.881Z,15.68
2023-03-06T01:46:30.704Z,16.25
2023-03-06T01:49:03.648Z,15.32
2023-03-06T01:51:36.549Z,18.83
2023-03-06T01:54:08.186Z,16.98
2023-03-06T01:56:35.681Z,16.05
2023-03-06T01:59:03.192Z,15.77
2023-03-06T02:01:31.639Z,16.08
2023-03-06T02:04:00.219Z,15.25
2023-03-06T02:06:27.858Z,17.25
2023-03-06T02:08:55.093Z,16.55
2023-03-06T02:11:23.483Z,17.80
2023-03-06T02:13:52.203Z,16.67
2023-03-06T02:16:20.728Z,16.50
2023-03-06T02:18:47.906Z,19.83
2023-03-06T02:21:23.807Z,18.67
2023-03-06T02:24:09.532Z,17.88
2023-03-06T02:26:37.738Z,17.98
2023-03-06T02:29:05.030Z,15.57
2023-03-06T02:31:33.485Z,17.25
2023-03-06T02:34:01.836Z,15.85
2023-03-06T02:36:29.842Z,16.42
2023-03-06T02:38:57.942Z,17.65
2023-03-06T02:41:25.558Z,17.65
2023-03-06T02:43:52.775Z,17.13
2023-03-06T02:46:20.342Z,16.73
2023-03-06T02:48:47.532Z,15.77
2023-03-06T02:51:14.643Z,16.90
2023-03-06T02:53:41.924Z,16.48
2023-03-06T02:56:09.147Z,17.88
2023-03-06T02:58:36.426Z,17.65
2023-03-06T03:01:03.566Z,18.33
2023-03-06T03:03:30.731Z,16.25
2023-03-06T03:05:57.898Z,18.45
2023-03-06T03:08:25.005Z,16.27
2023-03-06T03:10:52.194Z,17.83
2023-03-06T03:13:19.662Z,16.65
2023-03-06T03:15:46.792Z,17.60
2023-03-06T03:18:13.929Z,18.00
2023-03-06T03:20:43.220Z,18.92
2023-03-06T03:23:10.334Z,18.25
2023-03-06T03:25:37.404Z,17.88
2023-03-06T03:28:04.582Z,19.58
2023-03-06T03:30:31.745Z,18.65
2023-03-06T03:32:58.836Z,18.67
2023-03-06T03:35:26.000Z,16.48
2023-03-06T03:37:54.725Z,17.92
2023-03-06T03:40:21.804Z,20.63
2023-03-06T03:42:48.954Z,17.85
2023-03-06T03:45:16.179Z,17.30
2023-03-06T03:47:43.375Z,16.27
2023-03-06T03:50:11.175Z,17.70
2023-03-06T03:52:38.335Z,17.00
2023-03-06T03:55:06.006Z,16.42
2023-03-06T03:57:33.276Z,16.92
2023-03-06T04:00:00.366Z,17.38
2023-03-06T04:02:28.124Z,17.48
2023-03-06T04:04:55.354Z,16.75
2023-03-06T04:07:22.489Z,16.60
2023-03-06T04:09:49.658Z,15.82
2023-03-06T04:12:16.802Z,14.95
2023-03-06T04:14:43.989Z,15.20
2023-03-06T04:17:11.135Z,15.38
2023-03-06T04:19:38.196Z,14.30
2023-03-06T04:22:05.287Z,14.18
2023-03-06T04:24:32.345Z,12.20
2023-03-06T04:26:59.481Z,13.13
2023-03-06T04:29:26.532Z,12.05
2023-03-06T04:31:53.641Z,12.02
2023-03-06T04:34:20.753Z,12.48
2023-03-06T04:36:47.973Z,12.32
2023-03-06T04:39:15.264Z,12.20
2023-03-06T04:41:42.805Z,12.75
2023-03-06T04:44:10.215Z,12.88
2023-03-06T04:46:37.544Z,12.02
2023-03-06T04:49:04.849Z,10.30
2023-03-06T04:51:32.177Z,11.82
2023-03-06T04:53:59.403Z,11.50
2023-03-06T04:56:26.597Z,9.65
2023-03-06T04:58:53.745Z,10.88
2023-03-06T05:01:20.891Z,11.05
2023-03-06T05:03:49.713Z,11.05
2023-03-06T05:06:16.802Z,9.93
2023-03-06T05:08:44.160Z,10.45
2023-03-06T05:11:11.280Z,11.10
2023-03-06T05:13:38.395Z,10.07
2023-03-06T05:16:06.531Z,10.38
2023-03-06T05:18:34.439Z,9.80
2023-03-06T05:21:01.706Z,10.70
2023-03-06T05:23:29.246Z,9.70
2023-03-06T05:25:56.844Z,10.38
2023-03-06T05:28:24.066Z,8.77
2023-03-06T05:30:51.174Z,9.90
2023-03-06T05:33:18.880Z,9.75
2023-03-06T05:35:47.383Z,10.02
2023-03-06T05:38:15.095Z,9.80
2023-03-06T05:40:42.818Z,10.43
2023-03-06T05:43:10.339Z,9.68
2023-03-06T05:45:37.485Z,10.02
2023-03-06T05:48:04.808Z,9.18
2023-03-06T05:50:32.055Z,9.35
2023-03-06T05:52:59.142Z,10.02
2023-03-06T05:55:26.461Z,9.40
2023-03-06T05:57:54.141Z,10.68
2023-03-06T06:00:21.714Z,9.60
2023-03-06T06:02:48.872Z,10.52
2023-03-06T06:05:16.047Z,8.73
2023-03-06T06:07:43.183Z,9.82
2023-03-06T06:10:11.679Z,10.07
2023-03-06T06:12:39.070Z,9.25
2023-03-06T06:15:06.705Z,8.77
2023-03-06T06:17:33.778Z,9.70
2023-03-06T06:20:01.011Z,9.23
2023-03-06T06:22:28.279Z,9.68
2023-03-06T06:24:55.419Z,9.27
2023-03-06T06:27:22.524Z,9.90
2023-03-06T06:29:52.354Z,10.43
2023-03-06T06:32:19.569Z,9.00
2023-03-06T06:34:46.714Z,9.90
2023-03-06T06:37:13.858Z,9.93
2023-03-06T06:39:41.049Z,10.27
2023-03-06T06:42:28.615Z,10.85
2023-03-06T06:44:57.151Z,10.35
2023-03-06T06:47:25.563Z,10.75
2023-03-06T06:49:53.887Z,9.98
2023-03-06T06:52:21.073Z,10.60
2023-03-06T06:54:48.414Z,10.18
2023-03-06T06:57:16.216Z,9.65
2023-03-06T06:59:43.345Z,10.18
2023-03-06T07:02:14.320Z,10.20
2023-03-06T07:04:56.143Z,11.40
2023-03-06T07:07:25.517Z,10.50
2023-03-06T07:09:53.592Z,9.38
2023-03-06T07:12:20.805Z,10.50
2023-03-06T07:14:48.480Z,10.18
2023-03-06T07:17:15.718Z,10.85
2023-03-06T07:19:42.818Z,10.95
2023-03-06T07:22:10.034Z,10.93
2023-03-06T07:24:37.238Z,11.43
2023-03-06T07:27:04.408Z,12.02
2023-03-06T07:29:32.947Z,10.77
2023-03-06T07:32:00.159Z,10.73
2023-03-06T07:34:27.379Z,10.85
2023-03-06T07:36:54.483Z,10.50
2023-03-06T07:39:21.636Z,10.60
2023-03-06T07:41:48.902Z,10.48
2023-03-06T07:44:16.034Z,10.45
2023-03-06T07:46:43.127Z,12.02
2023-03-06T07:49:10.372Z,10.98
2023-03-06T07:51:37.515Z,12.63
2023-03-06T07:54:04.664Z,13.25
2023-03-06T07:56:32.075Z,13.43
2023-03-06T07:58:59.152Z,14.20
2023-03-06T08:01:26.313Z,13.85
2023-03-06T08:03:53.895Z,14.02
2023-03-06T08:06:25.446Z,14.82
2023-03-06T08:08:53.484Z,15.27
2023-03-06T08:11:22.060Z,15.55
2023-03-06T08:13:49.297Z,18.25
2023-03-06T08:16:17.512Z,19.60
2023-03-06T08:18:46.343Z,19.73
2023-03-06T08:21:15.150Z,24.38
2023-03-06T08:23:42.484Z,19.10
2023-03-06T08:26:13.129Z,16.67
2023-03-06T08:28:40.534Z,16.02
2023-03-06T08:31:09.388Z,17.35
2023-03-06T08:33:36.885Z,14.73
2023-03-06T08:36:04.143Z,14.13
2023-03-06T08:38:31.254Z,13.80
2023-03-06T08:40:58.528Z,13.93
2023-03-06T08:43:25.790Z,13.50
2023-03-06T08:45:53.657Z,14.23
2023-03-06T08:48:20.900Z,14.77
2023-03-06T08:50:48.163Z,13.27
2023-03-06T08:53:15.246Z,11.57
2023-03-06T08:55:42.418Z,12.85
2023-03-06T08:58:09.928Z,13.55
2023-03-06T09:00:38.015Z,11.82
2023-03-06T09:03:05.844Z,11.40
2023-03-06T09:05:32.986Z,11.68
2023-03-06T09:08:00.130Z,11.15
2023-03-06T09:10:27.542Z,11.10
2023-03-06T09:12:55.202Z,9.48
2023-03-06T09:15:23.456Z,9.98
2023-03-06T09:17:50.929Z,9.50
2023-03-06T09:20:18.786Z,10.95
2023-03-06T09:22:46.062Z,10.23
2023-03-06T09:25:13.912Z,11.15
2023-03-06T09:27:41.476Z,10.95
2023-03-06T09:30:09.015Z,12.63
2023-03-06T09:32:36.214Z,12.07
2023-03-06T09:35:03.474Z,11.60
2023-03-06T09:37:30.718Z,11.50
2023-03-06T09:39:58.088Z,12.32
2023-03-06T09:42:25.354Z,10.57
2023-03-06T09:44:54.817Z,10.35
2023-03-06T09:47:36.284Z,11.43
2023-03-06T09:50:05.004Z,11.13
2023-03-06T09:52:35.453Z,11.57
2023-03-06T09:55:02.564Z,12.57
2023-03-06T09:57:35.328Z,10.75
2023-03-06T10:00:05.858Z,10.30
2023-03-06T10:02:42.541Z,11.65
2023-03-06T10:05:13.831Z,10.95
2023-03-06T10:07:49.822Z,11.93
2023-03-06T10:10:24.999Z,11.80
2023-03-06T10:13:24.721Z,13.32
2023-03-06T10:15:55.496Z,12.25
2023-03-06T10:18:22.598Z,11.85
2023-03-06T10:21:07.416Z,13.45
2023-03-06T10:24:13.308Z,10.55
2023-03-06T10:26:43.060Z,11.05
2023-03-06T10:29:10.257Z,12.02
2023-03-06T10:31:38.289Z,10.68
2023-03-06T10:34:14.284Z,11.30
2023-03-06T10:36:41.524Z,11.52
2023-03-06T10:39:19.780Z,9.85
2023-03-06T10:41:47.936Z,10.73
2023-03-06T10:44:15.005Z,13.27
2023-03-06T10:46:46.841Z,11.63
2023-03-06T10:49:22.787Z,13.02
2023-03-06T10:52:21.584Z,13.02
2023-03-06T10:54:48.695Z,12.65
2023-03-06T10:57:27.050Z,12.82
2023-03-06T10:59:55.772Z,13.00
2023-03-06T11:02:27.562Z,13.35
2023-03-06T11:04:55.349Z,15.37
2023-03-06T11:07:24.282Z,12.95
2023-03-06T11:09:57.438Z,15.90
2023-03-06T11:12:29.296Z,14.02
2023-03-06T11:15:14.980Z,11.00
2023-03-06T11:18:02.845Z,13.00
2023-03-06T11:20:51.625Z,11.60
2023-03-06T11:23:20.951Z,10.20
2023-03-06T11:25:50.713Z,10.65
2023-03-06T11:28:26.666Z,11.52
2023-03-06T11:30:57.258Z,10.32
2023-03-06T11:33:46.397Z,10.18
2023-03-06T11:36:19.225Z,11.05
2023-03-06T11:38:50.682Z,12.57
2023-03-06T11:41:24.947Z,12.55
2023-03-06T11:43:56.297Z,11.05
2023-03-06T11:46:31.609Z,9.30
2023-03-06T11:49:13.923Z,10.38
2023-03-06T11:51:43.824Z,12.15
2023-03-06T11:54:13.423Z,10.38
2023-03-06T11:56:49.345Z,10.23
2023-03-06T11:59:30.306Z,9.63
2023-03-06T12:02:03.499Z,10.50
2023-03-06T12:04:46.632Z,10.63
2023-03-06T12:07:32.356Z,9.18
2023-03-06T12:10:06.723Z,10.95
2023-03-06T12:12:39.877Z,9.52
2023-03-06T12:15:20.376Z,9.50
2023-03-06T12:17:59.821Z,8.43
2023-03-06T12:20:33.431Z,8.30
2023-03-06T12:23:15.443Z,9.48
2023-03-06T12:25:47.265Z,8.10
2023-03-06T12:28:14.394Z,8.32
2023-03-06T12:30:50.695Z,7.82
2023-03-06T12:33:30.052Z,8.32
2023-03-06T12:36:09.254Z,9.95
2023-03-06T12:38:53.705Z,8.48
2023-03-06T12:41:44.253Z,8.65
2023-03-06T12:44:14.487Z,8.65
2023-03-06T12:46:47.657Z,10.82
2023-03-06T12:49:31.842Z,8.80
2023-03-06T12:51:59.970Z,8.45
2023-03-06T12:54:29.899Z,9.77
2023-03-06T12:56:57.705Z,9.32
2023-03-06T12:59:44.557Z,9.65
2023-03-06T13:02:14.589Z,10.80
2023-03-06T13:04:47.546Z,9.68
2023-03-06T13:07:22.998Z,9.32
2023-03-06T13:10:04.845Z,10.52
2023-03-06T13:12:54.256Z,9.82
2023-03-06T13:15:30.447Z,10.40
2023-03-06T13:17:57.626Z,10.15
2023-03-06T13:20:27.858Z,11.40
2023-03-06T13:22:55.050Z,10.57
2023-03-06T13:25:22.134Z,9.88
2023-03-06T13:27:55.049Z,10.07
2023-03-06T13:30:37.175Z,10.63
2023-03-06T13:33:23.087Z,11.95
2023-03-06T13:35:54.646Z,9.93
2023-03-06T13:38:38.200Z,9.68
2023-03-06T13:41:23.562Z,10.25
2023-03-06T13:43:52.257Z,10.38
2023-03-06T13:46:25.918Z,10.10
2023-03-06T13:49:08.444Z,10.52
2023-03-06T13:51:56.610Z,9.13
2023-03-06T13:54:29.510Z,9.40
2023-03-06T13:57:15.207Z,9.10
2023-03-06T13:59:50.519Z,9.93
2023-03-06T14:02:25.447Z,10.05
2023-03-06T14:04:53.388Z,10.50
2023-03-06T14:07:20.492Z,10.30
2023-03-06T14:09:48.570Z,10.50
2023-03-06T14:12:23.615Z,10.00
2023-03-06T14:14:56.605Z,10.13
2023-03-06T14:17:32.193Z,10.40
2023-03-06T14:20:02.301Z,10.85
2023-03-06T14:22:29.441Z,10.13
2023-03-06T14:25:08.217Z,9.00
2023-03-06T14:27:39.673Z,10.95
2023-03-06T14:30:12.329Z,11.05
2023-03-06T14:35:07.064Z,9.63
2023-03-06T14:37:36.034Z,10.10
2023-03-06T14:40:09.353Z,10.10
2023-03-06T14:42:37.270Z,10.82
2023-03-06T14:45:25.092Z,10.20
2023-03-06T14:47:53.128Z,11.82
2023-03-06T14:50:21.648Z,11.55
2023-03-06T14:52:49.273Z,11.90
2023-03-06T14:55:19.158Z,10.73
2023-03-06T14:57:48.312Z,10.63
2023-03-06T15:00:18.568Z,10.07
2023-03-06T15:02:46.809Z,8.25
2023-03-06T15:05:22.065Z,9.32
2023-03-06T15:07:49.635Z,9.88
2023-03-06T15:10:27.882Z,9.10
2023-03-06T15:12:55.117Z,8.98
2023-03-06T15:15:27.466Z,8.38
2023-03-06T15:17:54.654Z,6.78
2023-03-06T15:20:41.709Z,10.65
2023-03-06T15:23:19.629Z,9.50
2023-03-06T15:25:51.335Z,11.65
2023-03-06T15:28:38.591Z,26.57
2023-03-06T15:31:20.905Z,8.77
2023-03-06T15:34:06.716Z,8.13
2023-03-06T15:36:50.060Z,10.80
2023-03-06T15:39:26.005Z,9.32
2023-03-06T15:42:00.339Z,7.93
2023-03-06T15:44:28.233Z,6.88
2023-03-06T15:47:07.745Z,8.13
2023-03-06T15:49:37.191Z,7.05
2023-03-06T15:52:04.379Z,8.20
2023-03-06T15:54:32.933Z,7.32
2023-03-06T15:57:00.171Z,8.23
2023-03-06T15:59:31.285Z,7.00
2023-03-06T16:02:05.085Z,7.10
2023-03-06T16:04:32.257Z,6.82
2023-03-06T16:06:59.422Z,5.63
2023-03-06T16:09:26.712Z,7.68
2023-03-06T16:11:53.834Z,6.90
2023-03-06T16:14:23.610Z,7.22
2023-03-06T16:16:54.679Z,6.68
2023-03-06T16:19:27.797Z,7.05
2023-03-06T16:21:55.937Z,7.20
2023-03-06T16:24:23.133Z,6.82
2023-03-06T16:26:51.741Z,10.00
2023-03-06T16:29:20.075Z,6.55
2023-03-06T16:31:47.549Z,12.90
2023-03-06T16:34:15.214Z,7.47
2023-03-06T16:36:42.549Z,10.10
2023-03-06T16:39:15.007Z,10.07
2023-03-06T16:41:42.185Z,8.95
2023-03-06T16:44:10.125Z,7.80
2023-03-06T16:46:42.081Z,8.68
2023-03-06T16:49:14.167Z,9.70
2023-03-06T16:51:41.255Z,11.23
2023-03-06T16:54:08.393Z,8.30
2023-03-06T16:56:35.497Z,10.73
2023-03-06T16:59:02.576Z,12.73
2023-03-06T17:01:29.641Z,9.35
2023-03-06T17:03:56.767Z,9.57
2023-03-06T17:06:24.293Z,10.00
2023-03-06T17:08:51.794Z,9.70
2023-03-06T17:11:20.462Z,9.38
2023-03-06T17:13:48.018Z,9.57
2023-03-06T17:16:18.623Z,9.27
2023-03-06T17:18:46.435Z,10.40
2023-03-06T17:21:15.705Z,8.90
2023-03-06T17:23:43.026Z,9.18
2023-03-06T17:26:10.125Z,9.63
2023-03-06T17:28:38.544Z,10.13
2023-03-06T17:31:13.794Z,10.40
2023-03-06T17:33:41.031Z,9.55
2023-03-06T17:36:08.313Z,10.45
2023-03-06T17:38:35.524Z,10.13
2023-03-06T17:41:03.809Z,12.85
2023-03-06T17:43:31.130Z,11.10
2023-03-06T17:45:58.404Z,10.23
2023-03-06T17:48:25.852Z,10.75
2023-03-06T17:50:53.791Z,11.15
2023-03-06T17:53:21.320Z,11.25
2023-03-06T17:55:48.454Z,10.02
2023-03-06T17:58:15.842Z,9.85
2023-03-06T18:00:43.537Z,10.10
2023-03-06T18:03:10.651Z,10.38
2023-03-06T18:05:38.771Z,11.20
2023-03-06T18:08:08.209Z,11.77
2023-03-06T18:10:35.509Z,11.77
2023-03-06T18:13:02.606Z,10.98
2023-03-06T18:15:29.725Z,10.73
2023-03-06T18:17:56.986Z,12.27
2023-03-06T18:20:24.038Z,11.57
2023-03-06T18:22:51.224Z,10.07
2023-03-06T18:25:18.415Z,10.57
2023-03-06T18:27:45.568Z,11.00
2023-03-06T18:30:12.783Z,10.95
2023-03-06T18:32:39.950Z,12.38
2023-03-06T18:35:09.181Z,11.07
2023-03-06T18:37:36.489Z,11.00
2023-03-06T18:40:03.584Z,22.70
2023-03-06T18:42:30.768Z,9.88
2023-03-06T18:44:57.829Z,14.93
2023-03-06T18:47:24.994Z,16.00
2023-03-06T18:49:52.176Z,10.57
2023-03-06T18:52:19.462Z,10.52
2023-03-06T18:54:48.476Z,10.32
2023-03-06T18:57:15.988Z,15.35
2023-03-06T18:59:43.097Z,22.50
2023-03-06T19:02:11.181Z,13.77
2023-03-06T19:04:38.646Z,12.02
2023-03-06T19:07:06.375Z,11.50
2023-03-06T19:09:33.543Z,12.60
2023-03-06T19:12:03.104Z,8.82
2023-03-06T19:14:30.339Z,11.75
2023-03-06T19:16:57.536Z,10.60
2023-03-06T19:19:26.304Z,11.88
2023-03-06T19:21:53.839Z,10.65
2023-03-06T19:24:20.952Z,10.32
2023-03-06T19:26:48.084Z,11.25
2023-03-06T19:29:15.388Z,13.05
2023-03-06T19:31:42.962Z,11.57
2023-03-06T19:34:10.224Z,13.52
2023-03-06T19:36:38.810Z,11.32
2023-03-06T19:39:07.440Z,14.38
2023-03-06T19:41:34.827Z,14.23
2023-03-06T19:44:03.260Z,12.65
2023-03-06T19:46:31.719Z,11.68
2023-03-06T19:49:02.658Z,16.00
2023-03-06T19:51:29.866Z,10.98
2023-03-06T19:53:57.750Z,12.20
2023-03-06T19:56:28.826Z,16.23
2023-03-06T19:58:56.185Z,12.20
2023-03-06T20:01:24.887Z,14.18
2023-03-06T20:03:58.331Z,13.23
2023-03-06T20:06:26.664Z,22.90
2023-03-06T20:08:54.080Z,14.90
2023-03-06T20:11:31.574Z,23.13
2023-03-06T20:13:59.664Z,17.77
2023-03-06T20:16:30.605Z,15.70
2023-03-06T20:18:59.938Z,17.30
2023-03-06T20:21:27.875Z,15.82
2023-03-06T20:23:56.980Z,13.65
2023-03-06T20:26:24.660Z,29.75
2023-03-06T20:28:51.728Z,13.00
2023-03-06T20:31:19.923Z,14.40
2023-03-06T20:33:47.842Z,32.60
2023-03-06T20:36:15.986Z,15.80
2023-03-06T20:38:43.448Z,14.02
2023-03-06T20:41:17.506Z,14.93
2023-03-06T20:43:44.587Z,17.10
2023-03-06T20:46:12.993Z,14.15
2023-03-06T20:48:40.488Z,11.57
2023-03-06T20:51:08.944Z,16.50
2023-03-06T20:53:36.366Z,13.73
2023-03-06T20:56:03.511Z,13.90
2023-03-06T20:58:31.805Z,12.75
2023-03-06T21:01:01.385Z,15.07
2023-03-06T21:03:29.737Z,13.00
2023-03-06T21:05:57.108Z,14.07
2023-03-06T21:08:24.234Z,17.23
2023-03-06T21:10:51.749Z,12.05
2023-03-06T21:13:18.979Z,14.80
2023-03-06T21:15:47.568Z,13.32
2023-03-06T21:18:15.006Z,12.45
2023-03-06T21:20:42.347Z,12.68
2023-03-06T21:23:09.600Z,15.95
2023-03-06T21:25:36.694Z,12.27
2023-03-06T21:28:03.824Z,11.95
2023-03-06T21:30:30.997Z,12.35
2023-03-06T21:32:58.182Z,10.40
2023-03-06T21:35:25.366Z,11.02
2023-03-06T21:37:52.589Z,11.60
2023-03-06T21:40:19.777Z,11.57
2023-03-06T21:42:46.921Z,11.98
2023-03-06T21:45:14.037Z,16.33
2023-03-06T21:47:41.627Z,14.77
2023-03-06T21:50:09.997Z,26.38
2023-03-06T21:52:37.166Z,15.07
2023-03-06T21:55:04.538Z,15.82
2023-03-06T21:57:31.624Z,12.07
2023-03-06T21:59:58.699Z,15.40
2023-03-06T22:02:25.836Z,11.15
2023-03-06T22:04:53.259Z,11.55
2023-03-06T22:07:20.777Z,20.92
2023-03-06T22:09:47.937Z,13.05
2023-03-06T22:12:15.062Z,14.20
2023-03-06T22:14:43.817Z,10.35
2023-03-06T22:17:10.913Z,10.63
2023-03-06T22:19:38.058Z,10.35
2023-03-06T22:22:05.333Z,10.80
2023-03-06T22:24:32.469Z,10.93
2023-03-06T22:26:59.613Z,10.63
2023-03-06T22:29:26.877Z,9.73
2023-03-06T22:31:54.132Z,10.20
2023-03-06T22:34:21.207Z,10.88
2023-03-06T22:36:48.576Z,11.88
2023-03-06T22:39:15.860Z,10.63
2023-03-06T22:41:43.109Z,11.18
2023-03-06T22:44:15.196Z,10.48
2023-03-06T22:46:42.392Z,9.82
2023-03-06T22:49:10.046Z,8.52
2023-03-06T22:51:37.650Z,10.55
2023-03-06T22:54:05.347Z,9.95
2023-03-06T22:56:32.454Z,8.48
2023-03-06T22:58:59.958Z,10.70
2023-03-06T23:01:28.459Z,7.88
2023-03-06T23:04:02.602Z,10.18
2023-03-06T23:06:34.282Z,10.20
2023-03-06T23:09:03.386Z,10.03
2023-03-06T23:11:30.844Z,9.27
2023-03-06T23:13:58.710Z,10.40
2023-03-06T23:16:26.056Z,10.38
2023-03-06T23:18:53.892Z,10.50
2023-03-06T23:21:22.806Z,9.93
2023-03-06T23:23:51.104Z,11.10
2023-03-06T23:26:18.965Z,9.43
2023-03-06T23:28:46.136Z,11.27
2023-03-06T23:31:17.617Z,11.07
2023-03-06T23:33:45.014Z,10.55
2023-03-06T23:36:14.717Z,10.23
2023-03-06T23:38:41.928Z,10.32
2023-03-06T23:41:11.028Z,10.27
2023-03-06T23:43:38.275Z,9.52
2023-03-06T23:46:06.127Z,9.82
2023-03-06T23:48:33.962Z,9.30
2023-03-06T23:51:01.018Z,9.68
2023-03-06T23:53:28.246Z,10.10
2023-03-06T23:55:55.397Z,9.90
2023-03-06T23:58:22.553Z,9.60
